Depesze METAR lotnisk w Polsce

METAR – format kodowanego raportu o pogodzie używany w meteorologii lotniczej i prognozie pogody. METAR jest akronimem od ang. Meteorological Aerodrome Report. Typowy METAR zawiera informację o temperaturze, ciśnieniu, temperaturze punktu rosy, sile i kierunku wiatru, opadzie, pokrywie chmur, wysokości podstawy chmur, widzialności, lecz może zawierać też inne informacje (np. stan dróg startowych).

Warszawa-Okęcie (EPWA)

METAR = EPWA 251700Z 13011KT CAVOK 22/15 Q0998 NOSIG

STACJA......... EPWA - Warszawa-Okęcie (WAW)
POMIAR......... Fri Sep 25, 19:00 CEST
WIATR.......... południowo wschodni (SE) z prędkością 20 km/h
WIDZIALNOŚĆ.... powyżej 10 kilometrów
CHMURY......... bezchmurne niebo
TEMPERATURA.... 22°C
T.PUNKTU ROSY.. 15°C
WILGOTNOŚĆ..... 65%
CIŚNIENIE...... 998 hPa
CIŚN.BEZWZGL... 985 hPa
PROGNOZA....... bez nagłych zmian w ciągu 2h

Sprawdź też: Prognoza pogody Warszawa

Warszawa-Modlin (EPMO)

METAR = EPMO 251630Z 12007KT 090V150 CAVOK 22/15 Q0997 =

STACJA......... EPMO - Warszawa-Modlin (WMI)
POMIAR......... Fri Sep 25, 18:30 CEST
WIATR.......... wschodni południowo-wschodni (ESE) z prędkością 13 km/h
WIDZIALNOŚĆ.... powyżej 10 kilometrów
CHMURY......... bezchmurne niebo
TEMPERATURA.... 22°C
T.PUNKTU ROSY.. 15°C
WILGOTNOŚĆ..... 65%
CIŚNIENIE...... 997 hPa
CIŚN.BEZWZGL... 985 hPa

Sprawdź też: Prognoza pogody Nowy Dwór Mazowiecki

Kraków-Balice (EPKK)

METAR = EPKK 251700Z 08005KT 9999 BKN060 17/15 Q0997

STACJA......... EPKK - Kraków-Balice (KRK)
POMIAR......... Fri Sep 25, 19:00 CEST
WIATR.......... wschodni (E) z prędkością 9 km/h
WIDZIALNOŚĆ.... powyżej 10 kilometrów
CHMURY......... zachmurzenie średnie (5/8-7/8)
TEMPERATURA.... 17°C
T.PUNKTU ROSY.. 15°C
WILGOTNOŚĆ..... 88%
CIŚNIENIE...... 997 hPa
CIŚN.BEZWZGL... 969 hPa

Sprawdź też: Prognoza pogody Kraków

Łódź-Lublinek (EPLL)

METAR = EPLL 251700Z VRB01KT 9999 -SHRA BKN006 OVC033CB 16/15 Q0997

STACJA......... EPLL - Łódź-Lublinek (LCJ)
POMIAR......... Fri Sep 25, 19:00 CEST
WIATR.......... zmienny z prędkością 2 km/h
WIDZIALNOŚĆ.... powyżej 10 kilometrów
WARUNKI........ słaby: deszcz opad przelotny 
CHMURY......... zachmurzenie całkowite (8/8)
TEMPERATURA.... 16°C
T.PUNKTU ROSY.. 15°C
WILGOTNOŚĆ..... 94%
CIŚNIENIE...... 997 hPa
CIŚN.BEZWZGL... 976 hPa

Sprawdź też: Prognoza pogody Łódź

Wrocław-Strachowice (EPWR)

METAR = EPWR 251700Z 34003KT 9999 FEW008 SCT040 14/13 Q0997

STACJA......... EPWR - Wrocław-Strachowice (WRO)
POMIAR......... Fri Sep 25, 19:00 CEST
WIATR.......... północno północno-zachodni (NNW) z prędkością 6 km/h
WIDZIALNOŚĆ.... powyżej 10 kilometrów
CHMURY......... zachmurzenie małe (3/8-4/8)
TEMPERATURA.... 14°C
T.PUNKTU ROSY.. 13°C
WILGOTNOŚĆ..... 94%
CIŚNIENIE...... 997 hPa
CIŚN.BEZWZGL... 983 hPa

Sprawdź też: Prognoza pogody Wrocław

Katowice-Pyrzowice (EPKT)

METAR = EPKT 251700Z 07004KT 9999 -RA FEW003 15/15 Q0996

STACJA......... EPKT - Katowice-Pyrzowice (KTW)
POMIAR......... Fri Sep 25, 19:00 CEST
WIATR.......... wschodni północno-wschodni (ENE) z prędkością 7 km/h
WIDZIALNOŚĆ.... powyżej 10 kilometrów
WARUNKI........ słaby: deszcz 
CHMURY......... zachmurzenie niewielkie (1/8-2/8)
TEMPERATURA.... 15°C
T.PUNKTU ROSY.. 15°C
WILGOTNOŚĆ..... 100%
CIŚNIENIE...... 996 hPa
CIŚN.BEZWZGL... 961 hPa

Sprawdź też: Prognoza pogody Katowice

Gdańsk (EPGD)

METAR = EPGD 251700Z 12014KT 9999 FEW057CB 20/14 Q0996

STACJA......... EPGD - Gdańsk im. Lecha Wałęsy (GDN)
POMIAR......... Fri Sep 25, 19:00 CEST
WIATR.......... wschodni południowo-wschodni (ESE) z prędkością 26 km/h
WIDZIALNOŚĆ.... powyżej 10 kilometrów
CHMURY......... zachmurzenie niewielkie (1/8-2/8)
TEMPERATURA.... 20°C
T.PUNKTU ROSY.. 14°C
WILGOTNOŚĆ..... 69%
CIŚNIENIE...... 996 hPa
CIŚN.BEZWZGL... 979 hPa

Sprawdź też: Prognoza pogody Gdańsk

Poznań-Ławica (EPPO)

METAR = EPPO 251700Z 21003KT 190V260 9999 SCT005 BKN033 14/14 Q0997

STACJA......... EPPO - Poznań-Ławica (POZ)
POMIAR......... Fri Sep 25, 19:00 CEST
WIATR.......... południowo południowo-zachodni  (SSW) z prędkością 6 km/h
WIDZIALNOŚĆ.... powyżej 10 kilometrów
CHMURY......... zachmurzenie średnie (5/8-7/8)
TEMPERATURA.... 14°C
T.PUNKTU ROSY.. 14°C
WILGOTNOŚĆ..... 100%
CIŚNIENIE...... 997 hPa
CIŚN.BEZWZGL... 986 hPa

Sprawdź też: Prognoza pogody Poznań

Rzeszów-Jasionka (EPRZ)

METAR = EPRZ 251700Z 14006KT 9999 -SHRA FEW050CB 19/15 Q1000

STACJA......... EPRZ - Rzeszów-Jasionka (RZE)
POMIAR......... Fri Sep 25, 19:00 CEST
WIATR.......... południowo wschodni (SE) z prędkością 11 km/h
WIDZIALNOŚĆ.... powyżej 10 kilometrów
WARUNKI........ słaby: deszcz opad przelotny 
CHMURY......... zachmurzenie niewielkie (1/8-2/8)
TEMPERATURA.... 19°C
T.PUNKTU ROSY.. 15°C
WILGOTNOŚĆ..... 78%
CIŚNIENIE...... 1000 hPa
CIŚN.BEZWZGL... 976 hPa

Sprawdź też: Prognoza pogody Rzeszów

Szczecin-Goleniów (EPSC)

METAR = EPSC 251700Z VRB02KT 9999 SCT004 BKN014 14/13 Q0996

STACJA......... EPSC - Szczecin-Goleniów (SZZ)
POMIAR......... Fri Sep 25, 19:00 CEST
WIATR.......... zmienny z prędkością 4 km/h
WIDZIALNOŚĆ.... powyżej 10 kilometrów
CHMURY......... zachmurzenie średnie (5/8-7/8)
TEMPERATURA.... 14°C
T.PUNKTU ROSY.. 13°C
WILGOTNOŚĆ..... 94%
CIŚNIENIE...... 996 hPa
CIŚN.BEZWZGL... 990 hPa

Sprawdź też: Prognoza pogody Szczecin

Lublin-Świdnik (EPLB)

METAR = EPLB 251630Z 11008KT CAVOK 20/15 Q1001 =

STACJA......... EPLB - Lublin-Świdnik (LUZ)
POMIAR......... Fri Sep 25, 18:30 CEST
WIATR.......... wschodni południowo-wschodni (ESE) z prędkością 15 km/h
WIDZIALNOŚĆ.... powyżej 10 kilometrów
CHMURY......... bezchmurne niebo
TEMPERATURA.... 20°C
T.PUNKTU ROSY.. 15°C
WILGOTNOŚĆ..... 73%
CIŚNIENIE...... 1001 hPa
CIŚN.BEZWZGL... 978 hPa

Sprawdź też: Prognoza pogody Lublin

Bydgoszcz-Szwederowo (EPBY)

METAR = EPBY 251630Z 19006KT 160V220 6000 -RA FEW002 SCT011 BKN018 16/16 Q0996=

STACJA......... EPBY - Bydgoszcz-Szwederowo (BZG)
POMIAR......... Fri Sep 25, 18:30 CEST
WIATR.......... południowy (S) z prędkością 11 km/h
WIDZIALNOŚĆ.... 6000 metrów
WARUNKI........ słaby: deszcz 
CHMURY......... zachmurzenie średnie (5/8-7/8)
TEMPERATURA.... 16°C
T.PUNKTU ROSY.. 16°C
WILGOTNOŚĆ..... 100%
CIŚNIENIE...... 996 hPa
CIŚN.BEZWZGL... 988 hPa

Sprawdź też: Prognoza pogody Bydgoszcz

Zielona Góra-Babimost (EPZG)

METAR = EPZG 251630Z VRB02KT 9999 SCT007 BKN038 15/14 Q0997 =

STACJA......... EPZG - Zielona Góra-Babimost (IEG)
POMIAR......... Fri Sep 25, 18:30 CEST
WIATR.......... zmienny z prędkością 4 km/h
WIDZIALNOŚĆ.... powyżej 10 kilometrów
CHMURY......... zachmurzenie średnie (5/8-7/8)
TEMPERATURA.... 15°C
T.PUNKTU ROSY.. 14°C
WILGOTNOŚĆ..... 94%
CIŚNIENIE...... 997 hPa
CIŚN.BEZWZGL... 990 hPa

Sprawdź też: Prognoza pogody Zielona Góra

Szymany Olsztyn-Mazury (EPSY)

METAR = EPSY 251630Z 12007KT 090V150 CAVOK 21/14 Q0999=

STACJA......... EPSY - Olsztyn-Mazury (SZY)
POMIAR......... Fri Sep 25, 18:30 CEST
WIATR.......... wschodni południowo-wschodni (ESE) z prędkością 13 km/h
WIDZIALNOŚĆ.... powyżej 10 kilometrów
CHMURY......... bezchmurne niebo
TEMPERATURA.... 21°C
T.PUNKTU ROSY.. 14°C
WILGOTNOŚĆ..... 64%
CIŚNIENIE...... 999 hPa
CIŚN.BEZWZGL... 983 hPa

Sprawdź też: Prognoza pogody Olsztyn